Time;durP1;ratioP1;P1;durP2;ratioP2;P2;SDS_P1;SDS_P2;PMS_P1;PMS_P2;Temp;Humidity;BMP_temperature;BMP_pressure;BME280_temperature;BME280_humidity;BME280_pressure;Samples;Min_cycle;Max_cycle;Signal;HPM_P1;HPM_P2
2023/06/01 00:01:01;;;;;;;12.73;9.80;;;22.10;44.50;;;;;;5016604;28;20302;-79
2023/06/01 00:03:29;;;;;;;13.55;10.02;;;22.10;44.50;;;;;;5017844;28;20200;-79
2023/06/01 00:05:56;;;;;;;11.63;9.02;;;22.10;44.50;;;;;;5016279;28;20216;-79
2023/06/01 00:08:23;;;;;;;11.73;9.90;;;22.10;44.60;;;;;;5017003;28;20227;-79
2023/06/01 00:10:51;;;;;;;13.25;10.23;;;22.10;44.60;;;;;;5016231;28;20266;-79
2023/06/01 00:13:19;;;;;;;12.02;9.80;;;22.00;44.70;;;;;;5016318;28;20299;-79
2023/06/01 00:15:46;;;;;;;11.95;9.75;;;22.00;44.90;;;;;;5016664;28;20230;-79
2023/06/01 00:18:15;;;;;;;11.93;9.43;;;22.00;44.90;;;;;;5017429;28;20195;-79
2023/06/01 00:20:42;;;;;;;9.65;8.57;;;22.00;44.90;;;;;;4999920;28;20200;-79
2023/06/01 00:23:10;;;;;;;11.98;9.23;;;22.00;44.70;;;;;;5016291;28;20244;-79
2023/06/01 00:25:37;;;;;;;12.10;9.50;;;22.00;44.80;;;;;;5016242;28;20215;-79
2023/06/01 00:28:04;;;;;;;10.25;8.57;;;22.00;44.80;;;;;;5016180;28;20298;-79
2023/06/01 00:30:34;;;;;;;11.80;8.65;;;22.00;44.70;;;;;;5016491;28;20196;-78
2023/06/01 00:33:01;;;;;;;9.77;8.27;;;22.00;45.00;;;;;;5016557;28;20204;-78
2023/06/01 00:35:28;;;;;;;12.30;8.55;;;21.90;44.70;;;;;;5000085;28;20239;-78
2023/06/01 00:37:56;;;;;;;9.85;8.35;;;21.90;44.80;;;;;;5034425;28;20189;-78
2023/06/01 00:40:23;;;;;;;10.13;8.10;;;21.90;44.80;;;;;;5016748;28;20218;-78
2023/06/01 00:42:51;;;;;;;11.18;8.10;;;21.90;45.00;;;;;;5019518;28;20196;-78
2023/06/01 00:45:18;;;;;;;10.88;7.75;;;21.90;44.90;;;;;;5020467;28;20223;-78
2023/06/01 00:47:46;;;;;;;11.90;8.65;;;21.90;44.90;;;;;;5020257;28;20228;-78
2023/06/01 00:50:14;;;;;;;10.60;7.78;;;21.90;45.00;;;;;;5020269;28;20600;-78
2023/06/01 00:52:41;;;;;;;10.52;8.60;;;21.80;44.90;;;;;;5021020;28;20199;-78
2023/06/01 00:55:09;;;;;;;10.35;8.07;;;21.80;45.00;;;;;;5005546;28;20224;-78
2023/06/01 00:57:37;;;;;;;11.55;8.52;;;21.80;44.90;;;;;;5021006;28;20200;-78
2023/06/01 01:00:08;;;;;;;12.23;8.77;;;21.80;45.00;;;;;;5020284;28;20211;-78
2023/06/01 01:02:38;;;;;;;12.70;9.30;;;21.70;45.10;;;;;;5020371;28;20211;-78
2023/06/01 01:05:09;;;;;;;10.02;8.10;;;21.80;45.20;;;;;;5020381;28;20271;-78
2023/06/01 01:07:56;;;;;;;10.88;8.30;;;21.70;45.20;;;;;;5020720;28;20212;-78
2023/06/01 01:10:27;;;;;;;12.75;8.85;;;21.70;45.00;;;;;;5020856;28;20638;-78
2023/06/01 01:12:58;;;;;;;9.77;8.25;;;21.70;45.30;;;;;;5021598;28;20188;-78
2023/06/01 01:15:27;;;;;;;10.52;7.72;;;21.70;45.20;;;;;;5021250;28;20331;-78
2023/06/01 01:18:02;;;;;;;11.43;8.48;;;21.70;45.20;;;;;;5019687;28;20350;-78
2023/06/01 01:20:34;;;;;;;8.90;7.72;;;21.60;45.10;;;;;;5020189;28;20254;-78
2023/06/01 01:23:16;;;;;;;9.65;7.32;;;21.60;45.20;;;;;;5019904;28;20280;-78
2023/06/01 01:25:58;;;;;;;9.95;7.43;;;21.60;45.20;;;;;;5019758;28;20216;-78
2023/06/01 01:28:43;;;;;;;12.07;8.20;;;21.60;45.30;;;;;;5020012;28;20191;-78
2023/06/01 01:31:13;;;;;;;12.10;8.25;;;21.60;45.30;;;;;;5019227;28;20586;-78
2023/06/01 01:33:40;;;;;;;11.65;8.43;;;21.60;45.60;;;;;;5018678;28;20199;-78
2023/06/01 01:36:09;;;;;;;10.07;7.90;;;21.60;45.50;;;;;;5019272;28;20215;-78
2023/06/01 01:38:36;;;;;;;9.75;7.57;;;21.50;45.40;;;;;;5024366;28;20208;-78
2023/06/01 01:41:03;;;;;;;10.20;7.93;;;21.50;45.50;;;;;;5019970;28;20286;-78
2023/06/01 01:43:31;;;;;;;8.90;7.40;;;21.50;45.30;;;;;;5003184;28;20611;-78
2023/06/01 01:46:03;;;;;;;9.02;7.35;;;21.50;45.50;;;;;;5020537;28;20212;-78
2023/06/01 01:48:36;;;;;;;7.80;7.00;;;21.50;45.40;;;;;;5018875;28;20565;-78
2023/06/01 01:51:09;;;;;;;9.88;7.55;;;21.50;45.60;;;;;;5019575;28;20292;-78
2023/06/01 01:53:37;;;;;;;11.77;7.53;;;21.50;45.80;;;;;;5018384;28;20188;-78
2023/06/01 01:56:05;;;;;;;8.73;7.47;;;21.50;45.70;;;;;;5018564;28;20227;-78
2023/06/01 01:58:32;;;;;;;10.38;7.43;;;21.50;45.70;;;;;;5002464;28;20192;-78
2023/06/01 02:01:00;;;;;;;10.30;8.10;;;21.50;45.70;;;;;;5018307;28;20207;-78
2023/06/01 02:03:28;;;;;;;10.40;7.68;;;21.50;45.70;;;;;;5018676;28;20204;-78
2023/06/01 02:05:55;;;;;;;9.80;7.97;;;21.40;45.70;;;;;;5002263;28;20232;-78
2023/06/01 02:08:22;;;;;;;10.00;7.43;;;21.40;45.80;;;;;;5018854;28;20196;-80
2023/06/01 02:10:49;;;;;;;8.50;6.95;;;21.40;45.80;;;;;;5018571;28;20224;-80
2023/06/01 02:13:17;;;;;;;7.47;6.75;;;21.40;45.80;;;;;;5018156;28;20199;-80
2023/06/01 02:15:44;;;;;;;7.22;6.30;;;21.40;45.70;;;;;;5017957;28;20231;-80
2023/06/01 02:18:17;;;;;;;7.72;6.72;;;21.40;45.60;;;;;;5001874;28;20199;-80
2023/06/01 02:20:44;;;;;;;8.60;7.47;;;21.40;45.80;;;;;;5018209;28;20188;-80
2023/06/01 02:23:11;;;;;;;9.35;7.28;;;21.30;45.70;;;;;;5017711;28;20551;-80
2023/06/01 02:25:39;;;;;;;7.35;6.60;;;21.30;46.00;;;;;;5017596;28;20709;-80
2023/06/01 02:28:07;;;;;;;9.00;7.38;;;21.30;46.00;;;;;;5018012;28;20204;-80
2023/06/01 02:30:34;;;;;;;9.70;6.72;;;21.30;46.00;;;;;;5018070;28;20291;-79
2023/06/01 02:33:01;;;;;;;8.45;7.60;;;21.30;46.10;;;;;;5018366;28;20196;-79
2023/06/01 02:35:30;;;;;;;8.27;6.70;;;21.30;46.00;;;;;;5017937;28;20259;-79
2023/06/01 02:37:58;;;;;;;8.73;6.60;;;21.30;46.00;;;;;;5020313;28;20196;-79
2023/06/01 02:40:25;;;;;;;7.78;6.97;;;21.30;46.10;;;;;;5002972;28;20196;-79
2023/06/01 02:42:52;;;;;;;7.35;6.47;;;21.30;46.20;;;;;;5026239;28;20191;-79
2023/06/01 02:45:19;;;;;;;8.07;6.40;;;21.20;46.00;;;;;;5041897;28;20255;-77
2023/06/01 02:47:47;;;;;;;7.97;6.47;;;21.20;46.20;;;;;;5035859;28;20246;-79
2023/06/01 02:50:14;;;;;;;8.98;7.32;;;21.20;46.00;;;;;;5002072;28;20219;-79
2023/06/01 02:52:46;;;;;;;7.13;6.25;;;21.20;46.10;;;;;;5018074;28;20227;-79
2023/06/01 02:55:13;;;;;;;8.05;6.50;;;21.20;46.00;;;;;;5017411;28;20258;-79
2023/06/01 02:58:04;;;;;;;8.80;6.60;;;21.20;46.10;;;;;;5017770;28;20206;-79
2023/06/01 03:00:42;;;;;;;7.57;6.35;;;21.20;46.30;;;;;;5002678;28;20200;-79
2023/06/01 03:03:09;;;;;;;8.95;7.30;;;21.20;46.20;;;;;;5016819;28;20200;-79
2023/06/01 03:05:37;;;;;;;8.85;6.88;;;21.20;46.20;;;;;;5016088;28;20208;-79
2023/06/01 03:08:31;;;;;;;7.63;6.40;;;21.10;46.20;;;;;;5011471;28;20265;-79
2023/06/01 03:10:59;;;;;;;7.13;6.05;;;21.20;46.20;;;;;;5016682;28;20197;-79
2023/06/01 03:13:32;;;;;;;6.93;6.22;;;21.10;46.40;;;;;;5017673;28;20196;-79
2023/06/01 03:16:00;;;;;;;8.68;6.88;;;21.10;46.50;;;;;;5017449;28;20234;-79
2023/06/01 03:18:27;;;;;;;7.72;6.50;;;21.20;46.70;;;;;;5016671;28;20733;-79
2023/06/01 03:20:54;;;;;;;8.13;6.15;;;21.20;46.70;;;;;;5017248;28;20306;-79
2023/06/01 03:23:22;;;;;;;7.13;6.13;;;21.20;46.60;;;;;;5016818;28;20204;-79
2023/06/01 03:25:51;;;;;;;8.63;6.68;;;21.20;46.50;;;;;;5017026;28;20212;-79
2023/06/01 03:28:18;;;;;;;8.35;6.40;;;21.20;46.60;;;;;;5016864;28;20223;-79
2023/06/01 03:30:46;;;;;;;8.52;6.43;;;21.20;46.60;;;;;;5017006;28;20242;-79
2023/06/01 03:33:14;;;;;;;7.18;6.15;;;21.20;46.50;;;;;;5017093;28;20238;-79
2023/06/01 03:35:41;;;;;;;8.57;6.60;;;21.30;46.50;;;;;;5000673;28;20744;-79
2023/06/01 03:38:09;;;;;;;7.85;6.57;;;21.30;46.30;;;;;;5017423;28;20200;-79
2023/06/01 03:40:36;;;;;;;6.80;6.10;;;21.30;46.10;;;;;;5000742;28;20203;-79
2023/06/01 03:43:04;;;;;;;8.23;6.28;;;21.40;46.00;;;;;;5016913;28;20250;-79
2023/06/01 03:45:32;;;;;;;8.20;6.07;;;21.40;45.90;;;;;;5018156;28;20212;-79
2023/06/01 03:48:00;;;;;;;7.85;6.35;;;21.40;46.00;;;;;;5017289;28;20657;-79
2023/06/01 03:50:27;;;;;;;7.72;6.35;;;21.40;45.90;;;;;;5001157;28;20223;-79
2023/06/01 03:52:57;;;;;;;7.80;6.15;;;21.40;45.70;;;;;;5016878;28;20223;-79
2023/06/01 03:55:25;;;;;;;8.65;6.30;;;21.40;46.10;;;;;;5000804;28;20223;-79
2023/06/01 03:58:11;;;;;;;7.32;6.22;;;21.50;45.90;;;;;;5017048;28;20674;-79
2023/06/01 04:00:39;;;;;;;7.90;5.70;;;21.40;46.00;;;;;;5016458;28;20204;-79
2023/06/01 04:03:07;;;;;;;7.47;6.03;;;21.40;45.90;;;;;;5016965;28;20196;-79
2023/06/01 04:05:36;;;;;;;6.13;5.35;;;21.50;46.00;;;;;;5016419;28;20212;-79
2023/06/01 04:08:03;;;;;;;6.85;5.60;;;21.40;45.90;;;;;;5016864;28;20192;-79
2023/06/01 04:10:30;;;;;;;7.38;6.07;;;21.50;45.80;;;;;;5016318;28;20195;-78
2023/06/01 04:12:57;;;;;;;6.60;5.78;;;21.50;45.80;;;;;;5016735;28;20206;-78
2023/06/01 04:15:29;;;;;;;6.97;6.28;;;21.50;45.80;;;;;;5016954;28;20247;-78
2023/06/01 04:17:56;;;;;;;6.68;5.97;;;21.50;46.00;;;;;;5019898;28;20207;-78
2023/06/01 04:20:24;;;;;;;6.50;5.78;;;21.50;45.90;;;;;;5020455;28;20286;-78
2023/06/01 04:22:51;;;;;;;6.15;5.55;;;21.40;45.90;;;;;;5020189;28;20607;-79
2023/06/01 04:25:20;;;;;;;6.22;5.30;;;21.50;46.00;;;;;;5020022;28;20202;-79
2023/06/01 04:27:51;;;;;;;7.50;5.68;;;21.50;46.00;;;;;;5020412;28;20246;-79
2023/06/01 04:30:18;;;;;;;6.28;5.40;;;21.50;46.00;;;;;;5020109;28;20200;-79
2023/06/01 04:32:47;;;;;;;7.00;5.50;;;21.50;46.00;;;;;;5019880;28;20651;-79
2023/06/01 04:35:15;;;;;;;6.30;5.38;;;21.50;46.00;;;;;;5019595;28;20220;-79
2023/06/01 04:37:43;;;;;;;6.28;5.65;;;21.50;46.00;;;;;;5019521;28;20226;-78
2023/06/01 04:40:13;;;;;;;7.05;6.35;;;21.50;45.90;;;;;;5019697;28;20196;-78
2023/06/01 04:42:42;;;;;;;6.35;5.68;;;21.50;46.00;;;;;;5019889;28;20283;-78
2023/06/01 04:45:10;;;;;;;6.85;5.32;;;21.70;45.90;;;;;;5019508;28;20198;-78
2023/06/01 04:47:39;;;;;;;5.43;4.88;;;21.80;45.70;;;;;;5019585;28;20295;-78
2023/06/01 04:50:11;;;;;;;5.97;5.38;;;22.00;45.40;;;;;;5019811;28;20261;-78
2023/06/01 04:52:39;;;;;;;7.05;5.43;;;22.10;45.20;;;;;;5003767;28;20199;-78
2023/06/01 04:55:07;;;;;;;5.93;5.32;;;22.30;44.90;;;;;;5019583;28;20220;-78
2023/06/01 04:57:35;;;;;;;6.32;4.82;;;22.40;44.60;;;;;;5019702;28;20230;-78
2023/06/01 05:00:04;;;;;;;5.85;5.22;;;22.60;44.40;;;;;;5019519;28;20192;-78
2023/06/01 05:02:30;;;;;;;6.68;5.18;;;22.70;44.20;;;;;;5019665;28;20307;-78
2023/06/01 05:04:59;;;;;;;7.25;5.70;;;22.80;44.00;;;;;;5003500;28;20196;-78
2023/06/01 05:07:28;;;;;;;5.45;4.95;;;23.00;43.80;;;;;;5003093;28;20200;-79
2023/06/01 05:09:55;;;;;;;5.60;5.03;;;23.10;43.70;;;;;;5019486;28;20208;-79
2023/06/01 05:12:22;;;;;;;5.32;4.82;;;23.20;43.50;;;;;;5019373;28;20679;-78
2023/06/01 05:14:50;;;;;;;7.20;4.80;;;23.40;43.90;;;;;;5019067;28;20192;-78
2023/06/01 05:17:18;;;;;;;5.55;4.60;;;23.50;43.00;;;;;;5019166;28;20714;-77
2023/06/01 05:19:45;;;;;;;5.28;4.30;;;23.50;42.10;;;;;;5018839;28;20196;-77
2023/06/01 05:22:12;;;;;;;5.38;4.25;;;23.30;42.40;;;;;;5003052;28;20207;-78
2023/06/01 05:24:41;;;;;;;5.10;3.60;;;23.40;42.40;;;;;;5019042;28;20254;-77
2023/06/01 05:27:08;;;;;;;4.60;3.88;;;23.50;42.30;;;;;;5018723;28;20586;-78
2023/06/01 05:29:35;;;;;;;6.28;3.70;;;23.60;42.20;;;;;;5018293;28;20200;-78
2023/06/01 05:32:02;;;;;;;5.38;3.88;;;23.70;42.10;;;;;;5019348;28;20192;-77
2023/06/01 05:34:29;;;;;;;5.72;4.05;;;23.90;42.70;;;;;;5018620;28;20188;-77
2023/06/01 05:36:56;;;;;;;4.25;3.70;;;24.00;42.00;;;;;;5002572;28;20319;-77
2023/06/01 05:39:28;;;;;;;5.65;3.88;;;24.20;42.00;;;;;;5018578;28;20207;-77
2023/06/01 05:41:57;;;;;;;4.93;4.00;;;24.30;42.50;;;;;;5018984;28;20276;-78
2023/06/01 05:44:25;;;;;;;6.65;4.47;;;24.40;41.80;;;;;;5018570;28;20243;-78
2023/06/01 05:46:53;;;;;;;6.55;3.95;;;24.50;41.60;;;;;;5018356;28;20242;-77
2023/06/01 05:49:20;;;;;;;4.53;3.83;;;24.60;41.60;;;;;;5018529;28;20299;-77
2023/06/01 05:51:49;;;;;;;5.00;4.50;;;24.70;41.40;;;;;;5018473;28;20200;-77
2023/06/01 05:54:16;;;;;;;8.80;5.75;;;24.80;41.10;;;;;;5019058;28;20669;-77
2023/06/01 05:56:44;;;;;;;7.43;4.93;;;24.90;41.10;;;;;;5019682;28;20220;-77
2023/06/01 05:59:12;;;;;;;8.23;5.28;;;25.00;40.90;;;;;;5019191;28;20196;-78
2023/06/01 06:01:42;;;;;;;7.90;4.78;;;25.10;40.90;;;;;;5018421;28;20208;-77
2023/06/01 06:04:09;;;;;;;6.15;4.82;;;25.20;41.00;;;;;;5019377;28;20591;-77
2023/06/01 06:06:36;;;;;;;7.28;4.28;;;25.20;40.80;;;;;;5036566;28;20204;-77
2023/06/01 06:09:04;;;;;;;8.32;4.75;;;25.30;40.70;;;;;;5002307;28;20200;-77
2023/06/01 06:11:31;;;;;;;6.30;4.25;;;25.40;40.40;;;;;;5017986;28;20199;-77
2023/06/01 06:13:58;;;;;;;7.60;3.90;;;25.50;40.30;;;;;;5017881;28;20196;-77
2023/06/01 06:16:26;;;;;;;6.13;4.03;;;25.60;40.10;;;;;;5017897;28;20282;-78
2023/06/01 06:18:54;;;;;;;8.48;4.38;;;25.70;40.60;;;;;;5018977;28;20230;-78
2023/06/01 06:21:21;;;;;;;5.70;4.03;;;25.70;39.90;;;;;;5018319;28;20196;-77
2023/06/01 06:23:48;;;;;;;5.05;4.22;;;25.80;39.60;;;;;;5017611;28;20208;-77
2023/06/01 06:26:15;;;;;;;6.43;4.35;;;25.90;39.50;;;;;;5017334;28;20216;-77
2023/06/01 06:28:43;;;;;;;5.00;3.70;;;26.00;39.50;;;;;;5017458;28;20200;-77
2023/06/01 06:31:10;;;;;;;5.80;3.85;;;26.00;39.20;;;;;;5017476;28;20200;-77
2023/06/01 06:33:38;;;;;;;5.55;4.13;;;26.10;39.10;;;;;;5017844;28;20261;-77
2023/06/01 06:36:06;;;;;;;6.63;3.90;;;26.10;38.90;;;;;;5017254;28;20224;-77
2023/06/01 06:38:34;;;;;;;7.63;4.18;;;26.20;38.80;;;;;;5000825;28;20207;-77
2023/06/01 06:41:00;;;;;;;5.80;3.88;;;26.30;38.60;;;;;;5017690;28;20553;-77
2023/06/01 06:43:28;;;;;;;4.50;3.85;;;26.40;38.50;;;;;;5017109;28;20207;-77
2023/06/01 06:45:55;;;;;;;5.60;4.03;;;26.40;38.40;;;;;;5000895;28;20231;-77
2023/06/01 06:48:21;;;;;;;6.70;3.97;;;26.50;38.20;;;;;;5017299;28;20246;-77
2023/06/01 06:50:51;;;;;;;6.10;3.67;;;26.60;38.10;;;;;;5016906;28;20571;-77
2023/06/01 06:53:18;;;;;;;4.47;3.72;;;26.60;37.90;;;;;;5017284;28;20195;-77
2023/06/01 06:55:46;;;;;;;6.32;3.88;;;26.70;37.80;;;;;;5017507;28;20267;-77
2023/06/01 06:58:13;;;;;;;6.22;3.80;;;26.70;37.70;;;;;;5018024;28;20204;-77
2023/06/01 07:00:40;;;;;;;5.93;3.50;;;26.80;37.60;;;;;;5017004;28;20286;-77
2023/06/01 07:03:08;;;;;;;4.88;3.97;;;26.80;37.30;;;;;;5017890;28;20207;-77
2023/06/01 07:05:35;;;;;;;5.93;3.72;;;26.90;37.30;;;;;;5017106;28;20277;-77
2023/06/01 07:08:03;;;;;;;3.78;3.38;;;26.90;37.10;;;;;;5017007;28;20667;-77
2023/06/01 07:10:31;;;;;;;4.00;3.60;;;27.00;37.20;;;;;;5016702;28;20559;-77
2023/06/01 07:12:58;;;;;;;6.22;4.07;;;27.00;37.10;;;;;;5000259;28;20200;-77
2023/06/01 07:15:26;;;;;;;4.53;3.55;;;27.10;37.00;;;;;;5034193;28;20211;-77
2023/06/01 07:17:53;;;;;;;5.50;3.80;;;27.10;36.90;;;;;;5016384;28;20216;-79
2023/06/01 07:20:21;;;;;;;5.45;4.03;;;27.20;36.90;;;;;;5017770;28;20196;-80
2023/06/01 07:22:49;;;;;;;4.72;3.60;;;27.20;36.80;;;;;;5017096;28;20206;-80
2023/06/01 07:25:18;;;;;;;5.05;3.55;;;27.20;36.70;;;;;;5024268;28;20187;-79
2023/06/01 07:27:45;;;;;;;5.13;3.45;;;27.30;36.70;;;;;;5018335;28;20225;-79
2023/06/01 07:30:14;;;;;;;4.13;3.60;;;27.30;36.60;;;;;;5018032;28;20238;-79
2023/06/01 07:32:42;;;;;;;5.25;3.90;;;27.30;36.50;;;;;;5001921;28;20568;-80
2023/06/01 07:35:11;;;;;;;3.97;3.58;;;27.40;36.60;;;;;;5017878;28;20196;-81
2023/06/01 07:37:41;;;;;;;4.05;3.65;;;27.40;36.50;;;;;;5017045;28;20269;-79
2023/06/01 07:40:09;;;;;;;4.10;3.70;;;27.40;36.40;;;;;;5016861;28;20203;-80
2023/06/01 07:42:38;;;;;;;4.93;3.90;;;27.40;36.40;;;;;;5019362;28;20206;-80
2023/06/01 07:45:08;;;;;;;4.07;3.30;;;27.50;36.30;;;;;;5018024;28;20192;-80
2023/06/01 07:47:35;;;;;;;4.60;3.35;;;27.50;36.30;;;;;;5018150;28;20561;-80
2023/06/01 07:50:03;;;;;;;5.10;3.67;;;27.60;36.20;;;;;;5018686;28;20200;-80
2023/06/01 07:52:30;;;;;;;4.65;3.42;;;27.60;36.20;;;;;;5017475;28;20195;-80
2023/06/01 07:54:57;;;;;;;4.15;3.72;;;27.60;36.20;;;;;;5018550;28;20195;-80
2023/06/01 07:57:25;;;;;;;3.80;3.45;;;27.60;36.70;;;;;;5017620;28;20226;-80
2023/06/01 07:59:53;;;;;;;4.80;3.28;;;27.60;36.10;;;;;;5018166;28;20223;-80
2023/06/01 08:02:21;;;;;;;4.28;3.42;;;27.60;36.60;;;;;;5018714;28;20207;-80
2023/06/01 08:04:48;;;;;;;5.18;3.60;;;27.60;36.00;;;;;;5017743;28;20202;-80
2023/06/01 08:07:16;;;;;;;4.22;3.50;;;27.70;36.00;;;;;;5018409;28;20212;-80
2023/06/01 08:09:43;;;;;;;4.63;3.72;;;27.70;36.00;;;;;;5017854;28;20200;-80
2023/06/01 08:12:11;;;;;;;4.72;3.55;;;27.70;36.00;;;;;;5029284;28;20267;-80
2023/06/01 08:14:38;;;;;;;3.85;3.47;;;27.70;36.00;;;;;;5041172;28;20191;-80
2023/06/01 08:17:08;;;;;;;4.45;3.65;;;27.70;35.90;;;;;;5038872;28;20230;-80
2023/06/01 08:19:35;;;;;;;4.47;3.22;;;27.70;35.90;;;;;;5018653;28;20202;-80
2023/06/01 08:22:04;;;;;;;4.75;3.58;;;27.80;35.90;;;;;;5018069;28;20207;-80
2023/06/01 08:24:32;;;;;;;3.67;3.33;;;27.80;35.90;;;;;;5017861;28;20195;-80
2023/06/01 08:26:59;;;;;;;3.83;3.45;;;27.80;35.90;;;;;;5018334;28;20247;-79
2023/06/01 08:29:26;;;;;;;4.00;3.25;;;27.80;35.80;;;;;;5017715;28;20683;-79
2023/06/01 08:31:54;;;;;;;3.92;3.53;;;27.80;35.90;;;;;;5001101;28;20678;-79
2023/06/01 08:34:23;;;;;;;5.55;3.72;;;27.70;35.90;;;;;;5017198;28;20203;-79
2023/06/01 08:36:50;;;;;;;3.90;3.50;;;27.80;36.00;;;;;;5016940;28;20251;-79
2023/06/01 08:39:26;;;;;;;4.10;3.22;;;27.80;36.00;;;;;;5007325;28;20199;-79
2023/06/01 08:42:00;;;;;;;3.70;3.40;;;27.80;36.00;;;;;;5037283;28;20185;-79
2023/06/01 08:44:30;;;;;;;4.68;3.45;;;27.80;36.00;;;;;;5038156;28;20215;-80
2023/06/01 08:46:58;;;;;;;4.18;3.60;;;27.80;36.00;;;;;;5019238;28;20220;-80
2023/06/01 08:49:26;;;;;;;3.80;3.40;;;27.80;35.90;;;;;;5018846;28;20210;-80
2023/06/01 08:51:54;;;;;;;3.90;3.50;;;27.80;35.90;;;;;;5017932;28;20203;-80
2023/06/01 08:54:22;;;;;;;4.18;3.53;;;27.80;35.90;;;;;;5018135;28;20196;-80
2023/06/01 08:56:48;;;;;;;3.92;3.40;;;27.80;35.90;;;;;;5018839;28;20219;-80
2023/06/01 08:59:16;;;;;;;3.50;3.20;;;27.90;36.00;;;;;;5035656;28;20187;-80
2023/06/01 09:01:43;;;;;;;3.70;3.22;;;27.90;35.90;;;;;;5016841;28;20207;-80
2023/06/01 09:04:11;;;;;;;3.97;3.50;;;27.80;35.80;;;;;;5019278;28;20570;-80
2023/06/01 09:06:39;;;;;;;3.85;3.40;;;27.80;35.80;;;;;;5022780;28;20218;-80
2023/06/01 09:09:10;;;;;;;3.70;3.40;;;27.90;35.80;;;;;;5024032;28;20209;-79
2023/06/01 09:11:38;;;;;;;3.85;3.53;;;27.90;35.80;;;;;;5022972;28;20283;-80
2023/06/01 09:14:20;;;;;;;4.18;3.70;;;27.90;35.80;;;;;;5022579;28;20199;-80
2023/06/01 09:16:47;;;;;;;4.15;3.33;;;27.90;35.80;;;;;;5022690;28;20234;-80
2023/06/01 09:19:15;;;;;;;4.32;3.70;;;27.90;35.80;;;;;;5023077;28;20202;-79
2023/06/01 09:21:55;;;;;;;4.80;3.30;;;27.90;35.80;;;;;;5020485;28;20206;-79
2023/06/01 09:24:23;;;;;;;4.60;3.50;;;27.90;35.80;;;;;;5020737;28;20282;-79
2023/06/01 09:26:50;;;;;;;4.13;3.65;;;27.90;36.40;;;;;;5020236;28;20273;-79
2023/06/01 09:29:17;;;;;;;4.35;3.55;;;27.90;35.80;;;;;;5020520;28;20214;-79
2023/06/01 09:31:45;;;;;;;4.18;3.42;;;27.90;35.80;;;;;;5019362;28;20666;-79
2023/06/01 09:34:15;;;;;;;4.07;3.55;;;27.90;35.90;;;;;;5021204;28;20249;-80
2023/06/01 09:36:42;;;;;;;3.75;3.20;;;27.90;35.90;;;;;;5019981;28;20242;-79
2023/06/01 09:39:11;;;;;;;3.55;3.25;;;27.80;35.90;;;;;;5019244;28;20196;-79
2023/06/01 09:41:46;;;;;;;4.05;3.60;;;27.90;36.00;;;;;;5019102;28;20208;-79
2023/06/01 09:44:14;;;;;;;4.45;3.30;;;27.80;35.90;;;;;;5019324;28;20719;-79
2023/06/01 09:46:48;;;;;;;3.80;3.42;;;27.90;36.00;;;;;;5019614;28;20604;-79
2023/06/01 09:49:20;;;;;;;3.28;3.00;;;27.80;36.00;;;;;;5021277;28;20290;-80
2023/06/01 09:51:47;;;;;;;3.75;3.10;;;27.80;36.00;;;;;;5019993;28;20200;-78
2023/06/01 09:54:25;;;;;;;3.70;3.40;;;27.80;36.10;;;;;;5018735;28;20732;-78
2023/06/01 09:56:53;;;;;;;3.80;3.40;;;27.80;36.10;;;;;;5018574;28;20269;-78
2023/06/01 09:59:21;;;;;;;3.20;2.90;;;27.80;36.10;;;;;;5019973;28;20635;-78
2023/06/01 10:01:50;;;;;;;3.63;3.33;;;27.80;36.20;;;;;;5018686;28;20227;-78
2023/06/01 10:04:19;;;;;;;3.50;3.20;;;27.80;36.20;;;;;;5020584;28;20286;-80
2023/06/01 10:06:46;;;;;;;3.60;3.30;;;27.70;36.20;;;;;;5019245;28;20219;-80
2023/06/01 10:09:15;;;;;;;3.63;3.30;;;27.80;36.30;;;;;;5003186;28;20238;-80
2023/06/01 10:11:43;;;;;;;4.00;3.33;;;27.70;36.30;;;;;;5019487;28;20195;-80
2023/06/01 10:14:11;;;;;;;3.53;3.10;;;27.70;36.30;;;;;;5018648;28;20254;-80
2023/06/01 10:16:40;;;;;;;3.67;3.38;;;27.70;36.40;;;;;;5019268;28;20226;-80
2023/06/01 10:19:08;;;;;;;3.42;3.10;;;27.70;36.40;;;;;;5019198;28;20218;-80
2023/06/01 10:21:35;;;;;;;3.80;3.38;;;27.60;36.40;;;;;;5018866;28;20208;-80
2023/06/01 10:24:04;;;;;;;3.60;3.20;;;27.60;36.50;;;;;;5018737;28;20196;-80
2023/06/01 10:26:34;;;;;;;3.88;3.30;;;27.60;36.60;;;;;;5019119;28;20211;-80
2023/06/01 10:29:03;;;;;;;3.55;3.00;;;27.50;36.60;;;;;;5020444;28;20203;-80
2023/06/01 10:31:37;;;;;;;5.03;3.30;;;27.60;36.80;;;;;;5020380;28;20655;-80
2023/06/01 10:34:04;;;;;;;3.53;3.22;;;27.50;36.80;;;;;;5020122;28;20195;-80
2023/06/01 10:37:09;;;;;;;4.07;3.08;;;27.50;36.90;;;;;;5019816;28;20260;-80
2023/06/01 10:39:36;;;;;;;3.65;3.28;;;27.40;36.90;;;;;;5020009;28;20683;-80
2023/06/01 10:42:49;;;;;;;3.65;2.95;;;27.40;37.00;;;;;;5002971;28;20204;-80
2023/06/01 10:45:40;;;;;;;3.55;3.08;;;27.40;37.10;;;;;;5019164;28;20187;-80
2023/06/01 10:48:07;;;;;;;3.30;3.00;;;27.30;37.20;;;;;;5019370;28;20195;-80
2023/06/01 10:50:35;;;;;;;3.30;3.00;;;27.30;37.30;;;;;;5019853;28;20199;-80
2023/06/01 10:53:30;;;;;;;3.15;2.85;;;27.30;37.30;;;;;;5019464;28;20234;-80
2023/06/01 10:56:21;;;;;;;3.35;3.05;;;27.20;37.30;;;;;;5016867;28;20214;-80
2023/06/01 10:58:52;;;;;;;3.70;3.25;;;27.20;37.40;;;;;;5016194;28;20215;-80
2023/06/01 11:01:21;;;;;;;4.75;3.33;;;27.20;37.50;;;;;;5018915;28;20301;-80
2023/06/01 11:03:50;;;;;;;3.40;3.10;;;27.10;37.70;;;;;;5018977;28;20649;-79
2023/06/01 11:06:27;;;;;;;3.22;2.92;;;27.00;37.80;;;;;;5036167;28;20552;-78
2023/06/01 11:08:58;;;;;;;3.47;3.17;;;27.00;38.00;;;;;;5017745;28;20203;-78
2023/06/01 11:11:58;;;;;;;3.58;3.20;;;26.90;38.10;;;;;;5017439;28;20214;-78
2023/06/01 11:14:26;;;;;;;3.40;3.10;;;26.90;38.10;;;;;;5017868;28;20310;-78
2023/06/01 11:16:55;;;;;;;3.88;3.00;;;26.80;38.20;;;;;;5017322;28;20215;-78
2023/06/01 11:19:24;;;;;;;4.40;3.20;;;26.90;38.40;;;;;;5001307;28;20199;-78
2023/06/01 11:21:56;;;;;;;3.50;3.10;;;26.80;38.40;;;;;;5017477;28;20295;-78
2023/06/01 11:24:23;;;;;;;3.45;3.15;;;26.80;38.40;;;;;;5016986;28;20188;-78
2023/06/01 11:26:51;;;;;;;4.28;2.85;;;26.80;38.50;;;;;;5016449;28;20681;-78
2023/06/01 11:29:19;;;;;;;3.33;3.03;;;26.80;38.60;;;;;;5035651;28;20218;-78
2023/06/01 11:31:46;;;;;;;3.55;3.13;;;26.80;38.60;;;;;;5019146;28;20199;-79
2023/06/01 11:34:15;;;;;;;3.75;3.28;;;26.70;38.60;;;;;;5002599;28;20214;-80
2023/06/01 11:36:44;;;;;;;3.47;3.17;;;26.80;38.70;;;;;;5016989;28;20223;-80
2023/06/01 11:39:24;;;;;;;3.33;3.13;;;26.70;38.60;;;;;;5017967;28;20215;-80
2023/06/01 11:41:52;;;;;;;3.42;3.03;;;26.70;38.70;;;;;;5036436;28;20180;-80
2023/06/01 11:44:19;;;;;;;3.33;3.00;;;26.70;38.70;;;;;;5003324;28;20203;-80
2023/06/01 11:46:52;;;;;;;3.40;3.10;;;26.70;38.70;;;;;;5018049;28;20243;-80
2023/06/01 11:49:23;;;;;;;3.33;3.03;;;26.70;38.80;;;;;;5017302;28;20222;-80
2023/06/01 11:51:52;;;;;;;3.40;3.10;;;26.80;38.80;;;;;;5018320;28;20195;-80
2023/06/01 11:54:26;;;;;;;3.65;3.10;;;26.80;38.90;;;;;;5017992;28;20200;-80
2023/06/01 11:56:53;;;;;;;3.45;3.10;;;26.70;38.80;;;;;;5018494;28;20694;-80
2023/06/01 11:59:20;;;;;;;3.15;2.80;;;26.70;38.80;;;;;;5036045;28;20257;-80
2023/06/01 12:01:47;;;;;;;3.45;3.15;;;26.70;38.80;;;;;;5019478;28;20207;-80
2023/06/01 12:04:15;;;;;;;3.30;2.92;;;26.80;38.90;;;;;;5019379;28;20203;-80
2023/06/01 12:06:45;;;;;;;3.30;3.00;;;26.70;38.80;;;;;;5004438;28;20227;-80
2023/06/01 12:09:13;;;;;;;3.88;3.38;;;26.70;38.90;;;;;;5020324;28;20195;-80
2023/06/01 12:11:44;;;;;;;3.85;3.17;;;26.80;38.90;;;;;;5036196;28;20213;-80
2023/06/01 12:14:11;;;;;;;3.58;3.25;;;26.70;38.80;;;;;;5018091;28;20226;-80
2023/06/01 12:16:58;;;;;;;3.40;3.10;;;26.70;38.90;;;;;;5003763;28;20741;-80
2023/06/01 12:19:26;;;;;;;3.42;3.13;;;26.70;38.90;;;;;;5020100;28;20206;-78
2023/06/01 12:22:06;;;;;;;3.38;3.08;;;26.70;38.80;;;;;;5020416;28;20650;-80
2023/06/01 12:24:34;;;;;;;3.13;2.83;;;26.80;39.00;;;;;;5026465;28;20194;-80
2023/06/01 12:27:19;;;;;;;2.80;2.60;;;26.70;39.00;;;;;;5019598;28;20219;-80
2023/06/01 12:29:57;;;;;;;3.15;2.90;;;26.70;38.90;;;;;;5018207;28;20219;-81
2023/06/01 12:32:26;;;;;;;3.85;2.97;;;26.70;39.00;;;;;;5019672;28;20195;-80
2023/06/01 12:35:07;;;;;;;3.40;3.10;;;26.80;39.10;;;;;;5016372;28;20227;-79
2023/06/01 12:37:37;;;;;;;3.30;3.03;;;26.80;39.10;;;;;;5024923;28;20277;-80
2023/06/01 12:40:06;;;;;;;2.97;2.78;;;26.70;39.00;;;;;;5024396;28;20642;-79
2023/06/01 12:42:37;;;;;;;3.05;2.83;;;26.70;39.10;;;;;;5021813;28;20198;-80
2023/06/01 12:45:06;;;;;;;3.22;2.90;;;26.70;39.10;;;;;;5040085;28;20263;-80
2023/06/01 12:47:37;;;;;;;2.90;2.70;;;26.70;39.20;;;;;;5026271;28;20188;-80
2023/06/01 12:50:05;;;;;;;3.50;3.20;;;26.70;39.20;;;;;;5032248;28;20212;-80
2023/06/01 12:52:32;;;;;;;3.15;2.85;;;26.70;39.20;;;;;;5028831;28;20290;-80
2023/06/01 12:55:03;;;;;;;3.22;2.92;;;26.70;39.20;;;;;;5020910;28;20253;-78
2023/06/01 12:57:30;;;;;;;3.03;2.72;;;26.70;39.20;;;;;;5020541;28;20291;-78